Time;durP1;ratioP1;P1;durP2;ratioP2;P2;SDS_P1;SDS_P2;PMS_P1;PMS_P2;Temp;Humidity;BMP_temperature;BMP_pressure;BME280_temperature;BME280_humidity;BME280_pressure;Samples;Min_cycle;Max_cycle;Signal;HPM_P1;HPM_P2
2024/01/15 00:02:36;;;;;;;;;;;6.50;99.90;;;;;;10577604;27;20051;-65
2024/01/15 00:07:38;;;;;;;8.77;1.80;;;6.80;99.90;;;;;;10581142;27;20744;-65
2024/01/15 00:12:42;;;;;;;0.30;0.30;;;6.30;99.90;;;;;;10577561;27;20178;-66
2024/01/15 00:17:44;;;;;;;0.10;0.10;;;5.60;99.90;;;;;;10580675;27;20054;-66
2024/01/15 00:22:47;;;;;;;0.83;0.83;;;6.40;99.90;;;;;;10581650;27;20383;-68
2024/01/15 00:27:50;;;;;;;0.15;0.15;;;6.10;99.90;;;;;;10584923;27;20047;-66
2024/01/15 00:32:52;;;;;;;0.20;0.20;;;6.10;99.90;;;;;;10591635;27;20162;-65
2024/01/15 00:37:55;;;;;;;0.20;0.20;;;7.00;99.90;;;;;;10588263;27;20193;-66
2024/01/15 00:42:59;;;;;;;0.10;0.10;;;5.60;99.90;;;;;;10592531;27;22451;-66
2024/01/15 00:48:01;;;;;;;0.10;0.10;;;5.90;99.90;;;;;;10584025;27;20478;-65
2024/01/15 00:53:03;;;;;;;0.10;0.10;;;5.60;99.90;;;;;;10591719;27;20213;-67
2024/01/15 00:58:10;;;;;;;0.20;0.20;;;5.20;99.90;;;;;;10590279;27;20101;-66
2024/01/15 01:03:12;;;;;;;0.20;0.20;;;6.00;99.90;;;;;;10593047;27;20653;-66
2024/01/15 01:08:14;;;;;;;0.22;0.22;;;6.00;99.90;;;;;;10575306;27;20187;-66
2024/01/15 01:13:18;;;;;;;0.22;0.22;;;6.30;99.90;;;;;;10589723;27;20044;-65
2024/01/15 01:18:20;;;;;;;0.10;0.10;;;5.40;99.90;;;;;;10591534;27;20585;-66
2024/01/15 01:23:22;;;;;;;0.20;0.20;;;5.60;99.90;;;;;;10589834;27;20054;-66
2024/01/15 01:28:26;;;;;;;0.20;0.20;;;5.40;99.90;;;;;;10589250;27;20062;-66
2024/01/15 01:33:28;;;;;;;0.20;0.20;;;6.10;99.90;;;;;;10587422;27;20061;-67
2024/01/15 01:38:32;;;;;;;0.20;0.20;;;7.10;99.90;;;;;;10588400;27;20058;-67
2024/01/15 01:43:36;;;;;;;0.20;0.20;;;5.80;99.90;;;;;;10586224;27;20047;-67
2024/01/15 01:48:38;;;;;;;0.25;0.25;;;6.50;99.90;;;;;;10587522;27;20486;-66
2024/01/15 01:53:41;;;;;;;0.20;0.20;;;6.10;99.90;;;;;;10588885;27;20051;-66
2024/01/15 01:58:45;;;;;;;0.10;0.10;;;6.30;99.90;;;;;;10585726;27;20055;-66
2024/01/15 02:03:47;;;;;;;0.28;0.28;;;6.20;99.90;;;;;;10583801;27;20517;-65
2024/01/15 02:08:49;;;;;;;0.20;0.20;;;5.80;99.90;;;;;;10583250;27;20054;-66
2024/01/15 02:13:53;;;;;;;0.20;0.20;;;5.80;99.90;;;;;;10583117;27;20069;-66
2024/01/15 02:18:55;;;;;;;0.20;0.20;;;5.10;99.90;;;;;;10588920;27;20070;-65
2024/01/15 02:23:58;;;;;;;0.20;0.20;;;5.80;99.90;;;;;;10586163;27;20131;-66
2024/01/15 02:29:00;;;;;;;0.20;0.20;;;5.10;99.90;;;;;;10585025;27;20062;-66
2024/01/15 02:34:02;;;;;;;0.20;0.20;;;5.20;99.90;;;;;;10585282;27;20050;-66
2024/01/15 02:39:06;;;;;;;0.20;0.20;;;5.40;99.90;;;;;;10585878;27;20043;-67
2024/01/15 02:44:08;;;;;;;;;;;4.60;99.90;;;;;;10589748;27;20806;-67
2024/01/15 02:49:10;;;;;;;0.20;0.20;;;5.30;99.90;;;;;;10586889;27;19930;-67
2024/01/15 02:54:15;;;;;;;0.10;0.10;;;5.10;99.90;;;;;;10586138;27;20873;-65
2024/01/15 02:59:17;;;;;;;0.10;0.10;;;6.50;99.90;;;;;;10584664;27;20055;-65
2024/01/15 03:04:19;;;;;;;0.20;0.20;;;5.70;99.90;;;;;;10585187;27;20054;-67
2024/01/15 03:09:22;;;;;;;0.20;0.20;;;5.20;99.90;;;;;;10582487;27;20050;-66
2024/01/15 03:14:26;;;;;;;;;;;5.10;99.90;;;;;;10583702;27;20701;-66
2024/01/15 03:19:28;;;;;;;0.10;0.10;;;5.10;99.90;;;;;;10585602;27;19930;-66
2024/01/15 03:24:32;;;;;;;0.20;0.20;;;5.50;99.90;;;;;;10584038;27;20549;-66
2024/01/15 03:29:34;;;;;;;0.20;0.20;;;5.20;99.90;;;;;;10586891;27;20043;-66
2024/01/15 03:34:36;;;;;;;0.20;0.20;;;5.00;99.90;;;;;;10584546;27;20494;-67
2024/01/15 03:39:40;;;;;;;0.30;0.30;;;4.50;99.90;;;;;;10591826;27;20047;-66
2024/01/15 03:44:42;;;;;;;0.30;0.30;;;3.80;99.90;;;;;;10586459;27;20056;-66
2024/01/15 03:49:44;;;;;;;0.45;0.45;;;5.30;99.90;;;;;;10588660;27;20047;-66
2024/01/15 03:54:47;;;;;;;0.17;0.17;;;7.40;99.90;;;;;;10586898;27;20055;-66
2024/01/15 04:15:32;;;;;;;0.20;0.20;;;4.60;99.90;;;;;;10568937;27;20116;-67
2024/01/15 04:20:36;;;;;;;0.20;0.20;;;4.50;99.90;;;;;;10580673;27;20063;-68
2024/01/15 04:25:38;;;;;;;0.35;0.35;;;6.00;99.90;;;;;;10580930;28;20586;-67
2024/01/15 04:30:42;;;;;;;0.20;0.20;;;5.20;99.90;;;;;;10576667;27;20646;-65
2024/01/15 04:35:44;;;;;;;0.10;0.10;;;5.20;99.90;;;;;;10584156;27;20151;-66
2024/01/15 04:40:46;;;;;;;0.20;0.20;;;4.70;99.90;;;;;;10582149;28;20062;-66
2024/01/15 04:45:50;;;;;;;0.20;0.20;;;5.00;99.90;;;;;;10580402;28;20051;-67
2024/01/15 04:50:51;;;;;;;;;;;6.20;99.90;;;;;;10580671;28;20096;-67
2024/01/15 04:55:53;;;;;;;0.13;0.13;;;6.90;99.90;;;;;;10587279;27;19969;-66
2024/01/15 05:00:57;;;;;;;0.15;0.15;;;6.30;99.90;;;;;;10581131;28;20047;-66
2024/01/15 05:05:59;;;;;;;0.20;0.20;;;6.40;99.90;;;;;;10578102;27;20463;-66
2024/01/15 05:11:01;;;;;;;0.10;0.10;;;6.00;99.90;;;;;;10578107;27;20062;-67
2024/01/15 05:16:05;;;;;;;0.13;0.13;;;4.70;99.90;;;;;;10577526;27;20088;-66
2024/01/15 05:21:07;;;;;;;0.22;0.22;;;4.60;99.90;;;;;;10579943;27;20093;-67
2024/01/15 05:26:09;;;;;;;0.25;0.25;;;3.90;99.90;;;;;;10553160;28;20047;-66
2024/01/15 05:31:13;;;;;;;0.20;0.20;;;3.70;99.90;;;;;;10549520;28;20039;-67
2024/01/15 05:36:15;;;;;;;0.20;0.20;;;4.10;99.90;;;;;;10553714;27;20438;-66
2024/01/15 05:41:18;;;;;;;0.20;0.20;;;5.10;99.90;;;;;;10547458;27;20036;-67
2024/01/15 05:46:22;;;;;;;0.30;0.30;;;5.10;99.90;;;;;;10544618;28;20110;-66
2024/01/15 05:51:24;;;;;;;0.20;0.20;;;4.30;99.90;;;;;;10549566;27;20054;-66
2024/01/15 05:56:26;;;;;;;0.22;0.22;;;4.90;99.90;;;;;;10552175;27;20062;-66
2024/01/15 06:01:29;;;;;;;0.20;0.20;;;3.70;99.90;;;;;;10548756;27;20089;-65
2024/01/15 06:06:31;;;;;;;;;;;3.90;99.90;;;;;;10543294;27;20051;-66
2024/01/15 06:11:33;;;;;;;0.25;0.25;;;4.80;99.90;;;;;;10546434;28;19923;-66
2024/01/15 06:16:37;;;;;;;0.20;0.20;;;5.90;99.90;;;;;;10548456;28;20057;-66
2024/01/15 06:21:38;;;;;;;;;;;6.50;99.90;;;;;;10552042;28;20052;-65
2024/01/15 06:26:40;;;;;;;0.20;0.20;;;6.10;99.90;;;;;;10551547;28;19935;-65
2024/01/15 06:31:44;;;;;;;0.20;0.20;;;5.40;99.90;;;;;;10542847;27;20054;-66
2024/01/15 06:36:45;;;;;;;;;;;4.80;99.90;;;;;;10544416;28;20048;-66
2024/01/15 06:41:47;;;;;;;0.20;0.20;;;5.10;99.90;;;;;;10544342;28;19920;-66
2024/01/15 06:46:51;;;;;;;0.20;0.20;;;4.90;99.90;;;;;;10543012;27;20066;-66
2024/01/15 06:51:53;;;;;;;0.20;0.20;;;4.60;99.90;;;;;;10541068;28;20404;-67
2024/01/15 06:56:55;;;;;;;0.20;0.20;;;4.20;99.90;;;;;;10544823;27;20066;-68
2024/01/15 07:01:59;;;;;;;0.20;0.20;;;4.60;99.90;;;;;;10545244;28;20072;-68
2024/01/15 07:07:01;;;;;;;0.20;0.20;;;4.10;99.90;;;;;;10534020;28;20702;-68
2024/01/15 07:12:03;;;;;;;0.32;0.32;;;4.50;99.90;;;;;;10546475;27;20047;-66
2024/01/15 07:17:07;;;;;;;0.20;0.20;;;4.70;99.90;;;;;;10545465;28;20090;-67
2024/01/15 07:22:10;;;;;;;0.20;0.20;;;4.10;99.90;;;;;;10543233;28;20878;-66
2024/01/15 07:27:12;;;;;;;11.60;1.73;;;4.20;99.90;;;;;;10545052;28;20051;-66
2024/01/15 07:32:16;;;;;;;3.50;0.77;;;3.90;99.90;;;;;;10542815;28;20054;-65
2024/01/15 07:37:18;;;;;;;1.38;0.68;;;4.20;99.90;;;;;;10540319;28;20054;-65
2024/01/15 07:42:22;;;;;;;9.25;1.85;;;4.10;99.90;;;;;;10539915;28;20858;-66
2024/01/15 07:47:25;;;;;;;4.38;1.30;;;4.00;99.90;;;;;;10541307;28;20058;-65
2024/01/15 07:52:27;;;;;;;;;;;4.50;99.90;;;;;;10538861;28;20048;-66
2024/01/15 07:57:29;;;;;;;12.80;1.42;;;3.90;99.90;;;;;;10540171;27;19951;-67
2024/01/15 08:02:33;;;;;;;6.53;1.13;;;4.00;99.90;;;;;;10538540;28;20138;-66
2024/01/15 08:07:35;;;;;;;4.03;0.90;;;4.10;99.90;;;;;;10537160;28;20423;-66
2024/01/15 08:12:37;;;;;;;4.80;0.95;;;4.20;99.90;;;;;;10537997;28;20166;-67
2024/01/15 08:17:41;;;;;;;4.20;1.10;;;3.80;99.90;;;;;;10536615;28;20056;-66
2024/01/15 08:22:43;;;;;;;4.13;1.02;;;3.50;99.90;;;;;;10537900;28;20051;-66
2024/01/15 08:27:45;;;;;;;10.63;1.48;;;4.10;99.90;;;;;;10537522;28;20051;-65
2024/01/15 08:32:49;;;;;;;15.23;2.60;;;3.90;99.90;;;;;;10536140;28;20058;-66
2024/01/15 08:37:51;;;;;;;11.82;1.73;;;4.50;99.90;;;;;;10538565;28;20047;-66
2024/01/15 08:42:53;;;;;;;8.88;1.05;;;5.30;99.90;;;;;;10537466;28;20040;-66
2024/01/15 08:47:56;;;;;;;2.25;0.82;;;4.60;99.90;;;;;;10535788;28;20055;-66
2024/01/15 08:52:58;;;;;;;;;;;4.10;99.90;;;;;;10538958;28;20158;-66
2024/01/15 08:58:00;;;;;;;10.95;1.52;;;4.20;99.90;;;;;;10539151;28;19958;-66
2024/01/15 09:03:06;;;;;;;4.43;1.10;;;4.20;99.90;;;;;;10546342;27;20994;-66
2024/01/15 09:08:10;;;;;;;10.57;2.10;;;4.20;99.90;;;;;;10546220;27;20490;-65
2024/01/15 09:13:15;;;;;;;7.65;1.60;;;4.20;99.90;;;;;;10545142;28;20056;-66
2024/01/15 09:18:25;;;;;;;7.07;1.52;;;4.10;99.90;;;;;;10544235;27;20055;-65
2024/01/15 09:23:27;;;;;;;6.30;0.90;;;3.70;99.90;;;;;;10543964;28;20058;-65
2024/01/15 09:28:31;;;;;;;6.40;1.10;;;4.20;99.90;;;;;;10546628;28;20122;-65
2024/01/15 09:33:34;;;;;;;;;;;4.30;99.90;;;;;;10549301;28;20047;-66
2024/01/15 09:38:37;;;;;;;6.55;1.05;;;3.90;99.90;;;;;;10547738;27;20522;-65
2024/01/15 09:43:40;;;;;;;17.15;3.55;;;3.70;99.90;;;;;;10551654;28;21293;-66
2024/01/15 09:48:43;;;;;;;16.42;2.28;;;4.40;99.90;;;;;;10542118;28;20178;-66
2024/01/15 09:53:46;;;;;;;;;;;5.20;99.90;;;;;;10544802;28;20193;-66
2024/01/15 09:58:48;;;;;;;0.30;0.30;;;4.40;99.90;;;;;;10547091;28;19935;-66
2024/01/15 10:03:54;;;;;;;0.13;0.13;;;4.60;99.90;;;;;;10544948;28;20256;-67
2024/01/15 10:08:59;;;;;;;24.58;1.83;;;4.00;99.90;;;;;;10544494;27;20131;-66
2024/01/15 10:14:02;;;;;;;1.35;1.27;;;3.90;99.90;;;;;;10546518;28;20806;-66
2024/01/15 10:19:06;;;;;;;0.20;0.20;;;4.80;99.90;;;;;;10545535;28;20048;-66
2024/01/15 10:24:09;;;;;;;0.30;0.30;;;5.30;99.90;;;;;;10541081;28;20052;-65
2024/01/15 10:29:11;;;;;;;;;;;4.40;99.90;;;;;;10544555;28;20063;-64
2024/01/15 10:34:16;;;;;;;0.20;0.20;;;3.50;99.90;;;;;;10538803;28;19931;-66
2024/01/15 10:39:17;;;;;;;0.35;0.35;;;4.10;99.90;;;;;;10549748;28;23420;-66
2024/01/15 10:44:20;;;;;;;0.20;0.20;;;4.30;99.90;;;;;;10547192;28;20473;-65
2024/01/15 10:49:25;;;;;;;0.20;0.20;;;5.20;99.90;;;;;;10546483;28;20040;-67
2024/01/15 10:54:28;;;;;;;0.30;0.30;;;5.00;99.90;;;;;;10549604;27;20426;-66
2024/01/15 10:59:30;;;;;;;0.30;0.30;;;4.80;99.90;;;;;;10548158;28;20101;-66
2024/01/15 11:04:35;;;;;;;0.22;0.22;;;5.80;99.90;;;;;;10545903;28;20039;-65
2024/01/15 11:09:38;;;;;;;0.20;0.20;;;5.30;99.90;;;;;;10545379;28;20050;-66
2024/01/15 11:14:44;;;;;;;0.20;0.20;;;5.30;99.90;;;;;;10542425;28;20062;-66
2024/01/15 11:19:50;;;;;;;0.20;0.20;;;5.20;99.90;;;;;;10544091;28;20463;-66
2024/01/15 11:24:52;;;;;;;0.30;0.30;;;4.40;99.90;;;;;;10541898;28;20167;-66
2024/01/15 11:30:05;;;;;;;8.00;1.27;;;4.80;99.90;;;;;;10542743;28;20783;-66
2024/01/15 11:35:10;;;;;;;0.17;0.17;;;5.10;99.90;;;;;;10546351;28;20083;-67
2024/01/15 11:40:14;;;;;;;0.20;0.20;;;6.10;99.90;;;;;;10544995;28;20112;-66
2024/01/15 11:45:20;;;;;;;0.20;0.20;;;6.30;99.90;;;;;;10543392;28;20048;-67
2024/01/15 11:50:24;;;;;;;0.20;0.20;;;6.00;99.90;;;;;;10543541;28;20464;-67
2024/01/15 11:55:31;;;;;;;0.20;0.20;;;5.90;99.90;;;;;;10544369;28;20052;-67
2024/01/15 12:00:34;;;;;;;0.10;0.10;;;6.70;99.90;;;;;;10540410;28;20063;-67
2024/01/15 12:05:38;;;;;;;0.20;0.20;;;6.90;99.90;;;;;;10544964;28;20055;-67
2024/01/15 12:10:42;;;;;;;0.10;0.10;;;7.20;99.90;;;;;;10543469;28;20461;-67
2024/01/15 12:15:45;;;;;;;0.20;0.20;;;6.30;99.90;;;;;;10543926;28;20605;-66
2024/01/15 12:20:48;;;;;;;0.10;0.10;;;5.70;99.90;;;;;;10542185;28;20596;-66
2024/01/15 12:25:51;;;;;;;0.20;0.20;;;6.30;99.90;;;;;;10536053;28;20043;-65
2024/01/15 12:30:54;;;;;;;0.17;0.17;;;5.50;99.90;;;;;;10544988;28;20044;-65
2024/01/15 12:35:57;;;;;;;0.10;0.10;;;5.60;99.90;;;;;;10545449;27;20209;-66
2024/01/15 12:41:01;;;;;;;12.57;2.42;;;5.80;99.90;;;;;;10550111;27;20426;-65
2024/01/15 12:46:04;;;;;;;13.05;1.70;;;4.90;99.90;;;;;;10544535;27;20052;-64
2024/01/15 12:51:09;;;;;;;6.70;1.43;;;5.00;99.90;;;;;;10550567;27;20565;-64
2024/01/15 12:56:11;;;;;;;22.50;3.33;;;4.80;99.90;;;;;;10550623;27;20055;-64
2024/01/15 13:01:13;;;;;;;9.02;1.40;;;4.90;99.90;;;;;;10549776;27;20070;-63
2024/01/15 13:06:17;;;;;;;8.15;0.80;;;4.90;99.90;;;;;;10547602;28;20050;-64
2024/01/15 13:11:19;;;;;;;3.63;0.80;;;4.70;99.90;;;;;;10543977;28;20196;-63
2024/01/15 13:16:21;;;;;;;15.93;2.38;;;6.10;99.90;;;;;;10543585;28;20128;-64
2024/01/15 13:21:27;;;;;;;0.85;0.47;;;7.00;99.90;;;;;;10543646;28;20190;-64
2024/01/15 13:26:29;;;;;;;1.00;0.50;;;7.50;99.90;;;;;;10546023;27;20055;-64
2024/01/15 13:31:32;;;;;;;6.78;0.90;;;8.50;99.90;;;;;;10540808;28;20113;-65
2024/01/15 13:36:35;;;;;;;14.85;3.08;;;9.40;99.90;;;;;;10541746;28;20036;-65
2024/01/15 13:41:37;;;;;;;9.43;1.23;;;9.80;99.90;;;;;;10541422;27;20171;-65
2024/01/15 13:46:39;;;;;;;17.40;2.90;;;8.60;99.90;;;;;;10538738;27;20193;-65
2024/01/15 13:51:43;;;;;;;26.98;2.97;;;8.10;99.90;;;;;;10541389;28;20050;-64
2024/01/15 13:56:47;;;;;;;17.42;2.05;;;6.60;99.90;;;;;;10541775;27;20055;-67
2024/01/15 14:01:49;;;;;;;18.23;2.28;;;6.30;99.90;;;;;;10541320;28;20055;-64
2024/01/15 14:06:52;;;;;;;11.10;2.50;;;6.50;99.90;;;;;;10540257;28;20055;-64
2024/01/15 14:11:54;;;;;;;9.20;1.75;;;5.80;99.90;;;;;;10544104;28;20076;-64
2024/01/15 14:16:56;;;;;;;6.13;1.25;;;5.30;99.90;;;;;;10541965;28;20048;-65
2024/01/15 14:21:59;;;;;;;7.32;1.02;;;6.00;99.90;;;;;;10541824;28;20051;-65
2024/01/15 14:27:01;;;;;;;;;;;5.80;99.90;;;;;;10543134;28;20070;-65
2024/01/15 14:32:04;;;;;;;0.20;0.20;;;7.30;99.90;;;;;;10542602;28;19923;-65
2024/01/15 14:37:07;;;;;;;0.10;0.10;;;7.20;99.90;;;;;;10535982;28;20044;-66
2024/01/15 14:42:11;;;;;;;0.10;0.10;;;6.60;99.90;;;;;;10537971;28;20074;-65
2024/01/15 14:47:13;;;;;;;0.10;0.10;;;6.80;99.90;;;;;;10540046;28;20055;-64
2024/01/15 14:52:16;;;;;;;0.10;0.10;;;7.20;99.90;;;;;;10539347;28;20055;-64
2024/01/15 14:57:19;;;;;;;12.70;3.55;;;6.90;99.90;;;;;;10540471;27;20050;-64
2024/01/15 15:02:21;;;;;;;15.77;1.77;;;5.60;99.90;;;;;;10541278;28;20054;-64
2024/01/15 15:07:25;;;;;;;16.17;1.60;;;6.20;99.90;;;;;;10539919;28;20044;-64
2024/01/15 15:12:28;;;;;;;8.63;1.35;;;6.50;99.90;;;;;;10535766;28;20205;-65
2024/01/15 15:17:30;;;;;;;6.22;1.55;;;6.60;99.90;;;;;;10538235;28;20058;-64
2024/01/15 15:22:33;;;;;;;20.38;2.30;;;6.70;99.90;;;;;;10536734;27;20859;-64
2024/01/15 15:27:35;;;;;;;;;;;6.20;99.90;;;;;;10539809;28;20036;-64
2024/01/15 15:32:37;;;;;;;12.68;2.58;;;6.50;99.90;;;;;;10541461;28;19930;-64
2024/01/15 15:37:40;;;;;;;4.95;1.00;;;6.50;99.90;;;;;;10540660;28;20054;-64
2024/01/15 15:42:43;;;;;;;;;;;7.70;99.90;;;;;;10541664;28;20121;-63
2024/01/15 15:47:45;;;;;;;3.28;0.95;;;7.00;99.90;;;;;;10541812;28;19924;-63
2024/01/15 15:52:48;;;;;;;3.25;1.27;;;6.90;99.90;;;;;;10541426;27;20086;-64
2024/01/15 15:57:50;;;;;;;13.00;2.28;;;6.80;99.90;;;;;;10533423;28;20411;-64
2024/01/15 16:02:52;;;;;;;11.50;1.63;;;7.70;99.90;;;;;;10535311;28;20540;-64
2024/01/15 16:07:56;;;;;;;18.48;2.60;;;6.70;99.90;;;;;;10534891;28;20087;-63
2024/01/15 16:12:58;;;;;;;17.63;1.98;;;6.30;99.90;;;;;;10533158;28;20056;-63
2024/01/15 16:18:00;;;;;;;0.30;0.30;;;6.10;99.90;;;;;;10532760;28;20138;-65
2024/01/15 16:23:04;;;;;;;0.20;0.20;;;4.50;99.90;;;;;;10538140;28;20052;-66
2024/01/15 16:28:06;;;;;;;0.65;0.65;;;5.40;99.90;;;;;;10538530;28;20090;-65
2024/01/15 16:33:09;;;;;;;0.20;0.20;;;7.70;99.90;;;;;;10536087;28;20054;-65
2024/01/15 16:38:12;;;;;;;0.10;0.10;;;8.00;99.90;;;;;;10536393;28;21060;-67
2024/01/15 16:43:14;;;;;;;0.10;0.10;;;8.90;99.90;;;;;;10535842;28;20442;-67
2024/01/15 16:48:16;;;;;;;0.20;0.20;;;7.70;99.90;;;;;;10538787;28;21133;-68
2024/01/15 16:53:20;;;;;;;0.25;0.25;;;9.00;99.90;;;;;;10537626;28;20075;-68
2024/01/15 16:58:22;;;;;;;0.10;0.10;;;9.20;99.90;;;;;;10531331;28;20051;-67
2024/01/15 17:03:24;;;;;;;0.10;0.10;;;10.20;99.90;;;;;;10534745;28;20089;-66
2024/01/15 17:08:28;;;;;;;0.10;0.10;;;8.60;99.90;;;;;;10533139;28;20092;-66
2024/01/15 17:13:32;;;;;;;15.13;2.05;;;5.70;99.90;;;;;;10532873;28;20048;-66
2024/01/15 17:18:34;;;;;;;12.35;2.10;;;4.60;99.90;;;;;;10530358;28;20043;-67
2024/01/15 17:23:38;;;;;;;8.77;1.92;;;4.50;99.90;;;;;;10535937;28;20809;-67
2024/01/15 17:28:40;;;;;;;6.00;1.77;;;4.90;99.90;;;;;;10535575;28;20100;-67
2024/01/15 17:33:42;;;;;;;11.75;2.65;;;4.60;99.90;;;;;;10536868;28;20048;-68
2024/01/15 17:38:45;;;;;;;7.43;1.73;;;4.30;99.90;;;;;;10534825;28;20050;-67
2024/01/15 17:43:47;;;;;;;19.05;3.67;;;5.30;99.90;;;;;;10539460;28;20051;-68
2024/01/15 17:48:51;;;;;;;26.02;2.70;;;4.10;99.90;;;;;;10534691;28;20181;-67
2024/01/15 17:53:54;;;;;;;10.63;2.22;;;6.00;99.90;;;;;;10532157;27;20048;-64
2024/01/15 17:58:56;;;;;;;;;;;6.80;99.90;;;;;;10536731;28;20174;-64
2024/01/15 18:04:02;;;;;;;16.50;2.25;;;8.20;99.90;;;;;;10534632;28;19928;-64
2024/01/15 18:09:06;;;;;;;8.75;2.25;;;7.60;99.90;;;;;;10534317;28;20051;-64
2024/01/15 18:14:08;;;;;;;10.60;1.52;;;6.20;99.90;;;;;;10533703;28;20502;-63
2024/01/15 18:19:10;;;;;;;7.47;1.65;;;4.90;99.90;;;;;;10532868;28;20059;-64
2024/01/15 18:24:14;;;;;;;0.20;0.20;;;5.30;99.90;;;;;;10533777;28;20486;-66
2024/01/15 18:29:18;;;;;;;0.20;0.20;;;5.10;99.90;;;;;;10531583;28;20059;-65
2024/01/15 18:34:20;;;;;;;0.20;0.20;;;4.30;99.90;;;;;;10533171;27;20069;-64
2024/01/15 18:39:24;;;;;;;0.30;0.30;;;3.70;99.90;;;;;;10530465;27;20048;-64
2024/01/15 18:44:25;;;;;;;0.52;0.52;;;3.60;99.90;;;;;;10530871;28;20044;-65
2024/01/15 18:49:28;;;;;;;0.30;0.30;;;4.00;99.90;;;;;;10534497;27;20134;-65
2024/01/15 18:54:31;;;;;;;28.48;2.17;;;4.50;99.90;;;;;;10535072;28;20835;-68
2024/01/15 18:59:34;;;;;;;;;;;4.00;99.90;;;;;;10537381;28;20145;-61
2024/01/15 19:04:36;;;;;;;0.22;0.22;;;4.10;99.90;;;;;;10541133;27;19923;-64
2024/01/15 19:09:39;;;;;;;0.20;0.20;;;5.50;99.90;;;;;;10535958;27;20067;-66
2024/01/15 19:14:42;;;;;;;0.85;0.85;;;5.10;99.90;;;;;;10536305;28;20043;-63
2024/01/15 19:19:49;;;;;;;0.20;0.20;;;5.30;99.90;;;;;;10538251;28;20060;-63
2024/01/15 19:24:52;;;;;;;0.20;0.20;;;5.10;99.90;;;;;;10537208;28;20052;-63
2024/01/15 19:29:54;;;;;;;;;;;5.00;99.90;;;;;;10531796;28;20166;-65
2024/01/15 19:34:56;;;;;;;0.10;0.10;;;4.10;99.90;;;;;;10531800;28;20294;-64
2024/01/15 19:40:00;;;;;;;0.20;0.20;;;4.90;99.90;;;;;;10535912;28;20052;-64
2024/01/15 19:45:02;;;;;;;8.27;1.85;;;4.00;99.90;;;;;;10530053;28;20099;-62
2024/01/15 19:50:04;;;;;;;0.25;0.25;;;3.90;99.90;;;;;;10532139;28;20051;-64
2024/01/15 19:55:09;;;;;;;0.20;0.20;;;3.60;99.90;;;;;;10527721;27;20084;-65
2024/01/15 20:00:12;;;;;;;1.13;1.13;;;3.90;99.90;;;;;;10530222;28;20914;-65
2024/01/15 20:05:15;;;;;;;0.30;0.30;;;4.20;99.90;;;;;;10533466;27;20040;-66
2024/01/15 20:10:19;;;;;;;0.30;0.30;;;4.90;99.90;;;;;;10528054;28;20121;-67
2024/01/15 20:15:21;;;;;;;0.20;0.20;;;4.40;99.90;;;;;;10530769;28;20185;-66
2024/01/15 20:20:23;;;;;;;4.38;3.03;;;4.60;99.90;;;;;;10531488;28;20062;-66
2024/01/15 20:25:27;;;;;;;1.55;1.45;;;5.30;99.90;;;;;;10527264;28;20078;-67
2024/01/15 20:30:30;;;;;;;3.35;3.08;;;7.30;99.90;;;;;;10536649;28;20055;-67
2024/01/15 20:35:35;;;;;;;0.10;0.10;;;8.60;99.90;;;;;;10529904;28;20052;-67
2024/01/15 20:40:39;;;;;;;0.10;0.10;;;9.40;99.90;;;;;;10533715;28;20109;-68
2024/01/15 20:45:41;;;;;;;0.10;0.10;;;9.80;99.90;;;;;;10525765;28;20138;-67
2024/01/15 20:50:43;;;;;;;0.20;0.20;;;10.00;99.90;;;;;;10523599;28;20173;-68
2024/01/15 20:55:46;;;;;;;0.20;0.20;;;10.10;99.90;;;;;;10530981;27;20494;-66
2024/01/15 21:00:49;;;;;;;0.57;0.57;;;10.20;99.90;;;;;;10532046;27;20063;-66
2024/01/15 21:05:51;;;;;;;0.20;0.20;;;10.40;99.90;;;;;;10532321;28;20166;-66
2024/01/15 21:10:54;;;;;;;0.10;0.10;;;10.60;99.90;;;;;;10535099;28;20167;-66
2024/01/15 21:15:58;;;;;;;0.75;0.75;;;10.50;99.90;;;;;;10535717;28;20218;-67
2024/01/15 21:21:03;;;;;;;0.10;0.10;;;10.50;99.90;;;;;;10535823;28;20055;-68
2024/01/15 21:26:07;;;;;;;0.40;0.40;;;8.90;99.90;;;;;;10535041;28;20052;-67
2024/01/15 21:31:10;;;;;;;0.10;0.10;;;8.30;99.90;;;;;;10533964;28;20083;-67
2024/01/15 21:36:12;;;;;;;0.40;0.40;;;7.40;99.90;;;;;;10538447;28;20059;-66
2024/01/15 21:41:15;;;;;;;5.57;2.33;;;7.70;99.90;;;;;;10544033;28;20480;-67
2024/01/15 21:46:18;;;;;;;2.65;1.05;;;7.70;99.90;;;;;;10545671;28;20051;-66
2024/01/15 21:51:20;;;;;;;0.20;0.20;;;7.10;99.90;;;;;;10542671;28;20493;-66
2024/01/15 21:56:23;;;;;;;0.93;0.93;;;6.70;99.90;;;;;;10544633;27;20133;-66
2024/01/15 22:01:26;;;;;;;0.63;0.63;;;6.50;99.90;;;;;;10542129;28;20043;-66
2024/01/15 22:06:28;;;;;;;0.20;0.20;;;7.00;99.90;;;;;;10538906;27;20092;-66
2024/01/15 22:11:32;;;;;;;0.10;0.10;;;6.40;99.90;;;;;;10540969;28;20074;-66
2024/01/15 22:16:34;;;;;;;0.10;0.10;;;6.50;99.90;;;;;;10538675;28;20065;-66
2024/01/15 22:21:43;;;;;;;0.15;0.15;;;6.60;99.90;;;;;;10543307;28;20066;-65
2024/01/15 22:26:46;;;;;;;0.10;0.10;;;6.60;99.90;;;;;;10543502;28;20054;-64
2024/01/15 22:31:49;;;;;;;0.10;0.10;;;6.90;99.90;;;;;;10536902;27;20114;-68
2024/01/15 22:36:51;;;;;;;0.38;0.38;;;8.20;99.90;;;;;;10551967;27;20035;-66
2024/01/15 22:41:54;;;;;;;0.10;0.10;;;8.80;99.90;;;;;;10544163;27;20136;-66
2024/01/15 22:46:56;;;;;;;21.17;2.10;;;8.50;99.90;;;;;;10531512;27;20092;-65
2024/01/15 22:51:58;;;;;;;9.35;1.98;;;6.20;99.90;;;;;;10541549;27;20063;-65
2024/01/15 22:57:01;;;;;;;8.75;1.42;;;4.80;99.90;;;;;;10540776;27;20097;-65
2024/01/15 23:02:04;;;;;;;11.82;1.83;;;4.90;99.90;;;;;;10538978;28;20062;-65
2024/01/15 23:07:06;;;;;;;11.63;2.28;;;5.50;99.90;;;;;;10543933;28;20134;-66
2024/01/15 23:12:10;;;;;;;14.38;1.65;;;5.90;99.90;;;;;;10543921;28;20070;-65
2024/01/15 23:17:12;;;;;;;13.70;2.35;;;6.40;99.90;;;;;;10542119;28;20153;-66
2024/01/15 23:22:14;;;;;;;10.95;1.85;;;7.00;99.90;;;;;;10543659;28;20058;-66
2024/01/15 23:27:18;;;;;;;5.78;2.22;;;7.20;99.90;;;;;;10540630;28;20182;-66
2024/01/15 23:32:20;;;;;;;5.18;1.75;;;7.30;99.90;;;;;;10542846;27;20117;-66
2024/01/15 23:37:22;;;;;;;7.45;1.20;;;6.10;99.90;;;;;;10540435;28;20587;-66
2024/01/15 23:42:27;;;;;;;13.80;1.65;;;6.40;99.90;;;;;;10539153;28;20054;-66
2024/01/15 23:47:29;;;;;;;25.17;1.13;;;6.20;99.90;;;;;;10536864;27;20051;-66
2024/01/15 23:52:31;;;;;;;14.85;2.40;;;5.60;99.90;;;;;;10532022;27;20213;-66
2024/01/15 23:57:34;;;;;;;3.95;1.30;;;5.90;99.90;;;;;;10542228;27;20050;-66
